Time;durP1;ratioP1;P1;durP2;ratioP2;P2;SDS_P1;SDS_P2;PMS_P1;PMS_P2;Temp;Humidity;BMP_temperature;BMP_pressure;BME280_temperature;BME280_humidity;BME280_pressure;Samples;Min_cycle;Max_cycle;Signal;HPM_P1;HPM_P2
2022/06/28 00:02:36;;;;;;;8.10;2.92;;;;;;;13.58;100.00;102022.16;10375418;28;20030;-83
2022/06/28 00:07:36;;;;;;;7.43;2.35;;;;;;;13.54;100.00;102027.13;10395635;28;20041;-82
2022/06/28 00:12:37;;;;;;;1.80;1.08;;;;;;;13.55;100.00;102020.66;10394296;28;20053;-83
2022/06/28 00:17:37;;;;;;;7.03;2.17;;;;;;;13.55;100.00;102022.53;10375317;28;20123;-82
2022/06/28 00:22:38;;;;;;;3.03;1.30;;;;;;;13.57;100.00;102021.31;10375216;28;20034;-84
2022/06/28 00:27:39;;;;;;;3.83;1.65;;;;;;;13.57;100.00;102024.03;10389709;28;20387;-83
2022/06/28 00:32:39;;;;;;;10.13;3.30;;;;;;;13.50;100.00;102014.94;10374650;28;20044;-83
2022/06/28 00:37:39;;;;;;;6.35;2.50;;;;;;;13.50;100.00;102017.69;10387256;28;20037;-82
2022/06/28 00:42:40;;;;;;;2.97;1.42;;;;;;;13.41;100.00;102019.66;10378424;28;20053;-82
2022/06/28 00:47:40;;;;;;;5.15;2.58;;;;;;;13.33;100.00;102033.34;10389918;28;20057;-84
2022/06/28 00:53:04;;;;;;;2.42;1.48;;;;;;;13.29;100.00;102031.19;10356686;28;20029;-83
2022/06/28 00:58:04;;;;;;;13.52;3.13;;;;;;;13.19;100.00;102029.56;10373524;28;20060;-84
2022/06/28 01:03:05;;;;;;;6.28;1.70;;;;;;;13.25;100.00;102026.13;10374281;28;20048;-82
2022/06/28 01:08:06;;;;;;;7.45;2.45;;;;;;;13.26;100.00;102030.53;10389157;28;20382;-83
2022/06/28 01:13:06;;;;;;;12.95;1.85;;;;;;;13.26;100.00;102035.97;10388964;28;20116;-81
2022/06/28 01:18:08;;;;;;;14.02;2.60;;;;;;;13.20;100.00;102028.53;10373654;28;20034;-83
2022/06/28 01:23:08;;;;;;;6.57;2.38;;;;;;;13.19;100.00;102031.44;10388671;28;20034;-82
2022/06/28 01:28:08;;;;;;;5.88;2.20;;;;;;;13.22;100.00;102039.22;10373364;28;20030;-80
2022/06/28 01:33:09;;;;;;;2.42;1.95;;;;;;;13.23;100.00;102030.88;10373589;28;20077;-83
2022/06/28 01:38:10;;;;;;;6.38;1.65;;;;;;;13.25;100.00;102033.44;10377125;28;20053;-82
2022/06/28 01:43:11;;;;;;;7.32;2.30;;;;;;;13.21;100.00;102043.00;10403986;28;20034;-83
2022/06/28 01:48:11;;;;;;;3.85;2.22;;;;;;;13.27;100.00;102044.97;10396252;28;20530;-83
2022/06/28 01:53:11;;;;;;;11.70;2.28;;;;;;;13.24;100.00;102053.47;10396126;28;20034;-82
2022/06/28 01:58:12;;;;;;;4.15;1.77;;;;;;;13.25;100.00;102052.50;10395198;28;20129;-82
2022/06/28 02:03:12;;;;;;;8.52;2.03;;;;;;;13.23;100.00;102065.38;10379213;28;20049;-83
2022/06/28 02:08:13;;;;;;;10.40;3.40;;;;;;;13.15;100.00;102060.06;10384765;28;20042;-83
2022/06/28 02:13:13;;;;;;;6.53;2.08;;;;;;;13.08;100.00;102050.91;10392578;28;20044;-82
2022/06/28 02:18:13;;;;;;;4.60;2.38;;;;;;;13.07;100.00;102066.41;10378951;28;20092;-82
2022/06/28 02:23:14;;;;;;;12.68;3.28;;;;;;;13.03;100.00;102056.94;10379691;28;20401;-82
2022/06/28 02:28:14;;;;;;;6.93;1.92;;;;;;;12.98;100.00;102057.47;10378901;28;20042;-83
2022/06/28 02:33:15;;;;;;;8.02;1.48;;;;;;;12.89;100.00;102063.19;10379364;28;20041;-83
2022/06/28 02:43:34;;;;;;;6.68;2.80;;;;;;;12.74;100.00;102063.16;10396369;28;20057;-83
2022/06/28 02:48:34;;;;;;;14.48;2.50;;;;;;;12.77;100.00;102069.06;10379504;28;20038;-83
2022/06/28 02:53:35;;;;;;;7.78;2.63;;;;;;;12.75;100.00;102068.41;10393521;28;20037;-83
2022/06/28 02:58:35;;;;;;;14.10;2.53;;;;;;;12.71;100.00;102077.94;10393237;28;20060;-82
2022/06/28 03:03:36;;;;;;;8.48;2.28;;;;;;;12.69;100.00;102074.56;10378341;28;20046;-82
2022/06/28 03:08:36;;;;;;;3.90;2.35;;;;;;;12.71;100.00;102080.66;10377940;28;20038;-82
2022/06/28 03:13:37;;;;;;;5.22;2.30;;;;;;;12.75;100.00;102081.97;10377490;28;20040;-82
2022/06/28 03:18:37;;;;;;;5.57;2.47;;;;;;;12.70;100.00;102084.44;10377285;28;20045;-82
2022/06/28 03:23:37;;;;;;;4.50;3.38;;;;;;;12.73;100.00;102092.22;10376773;28;20037;-82
2022/06/28 03:28:38;;;;;;;6.40;2.47;;;;;;;12.70;100.00;102103.44;10358738;28;20161;-82
2022/06/28 03:33:38;;;;;;;10.48;2.85;;;;;;;12.71;100.00;102099.69;10375778;28;20421;-82
2022/06/28 03:38:39;;;;;;;8.07;2.70;;;;;;;12.74;100.00;102115.63;10376495;28;20041;-82
2022/06/28 03:43:39;;;;;;;13.85;3.17;;;;;;;12.74;100.00;102114.81;10390143;28;20041;-83
2022/06/28 03:48:39;;;;;;;21.85;3.45;;;;;;;12.71;100.00;102113.28;10377799;28;20478;-84
2022/06/28 03:53:40;;;;;;;7.18;2.60;;;;;;;12.70;100.00;102111.59;10375945;28;20081;-83
2022/06/28 03:58:40;;;;;;;17.33;3.75;;;;;;;12.74;100.00;102125.69;10375740;28;20068;-82
2022/06/28 04:03:41;;;;;;;4.32;3.25;;;;;;;12.83;100.00;102130.03;10390291;28;20042;-83
2022/06/28 04:08:41;;;;;;;3.17;2.88;;;;;;;12.89;100.00;102128.41;10376073;28;20439;-83
2022/06/28 04:13:46;;;;;;;6.70;3.50;;;;;;;12.93;100.00;102129.78;10390162;28;20038;-82
2022/06/28 04:18:47;;;;;;;10.18;4.07;;;;;;;12.94;100.00;102137.72;10391291;28;20037;-83
2022/06/28 04:23:47;;;;;;;6.28;4.55;;;;;;;12.98;100.00;102143.66;10374833;28;20439;-83
2022/06/28 04:28:47;;;;;;;15.13;3.95;;;;;;;13.07;100.00;102142.53;10374265;28;20087;-83
2022/06/28 04:33:48;;;;;;;21.08;4.80;;;;;;;13.17;100.00;102142.28;10390026;28;20045;-84
2022/06/28 04:38:48;;;;;;;10.57;3.97;;;;;;;13.27;100.00;102137.44;10373340;28;20084;-70
2022/06/28 04:43:49;;;;;;;12.77;4.22;;;;;;;14.25;100.00;102136.31;10310192;28;20058;-70
2022/06/28 04:48:49;;;;;;;5.90;3.03;;;;;;;15.14;100.00;102130.50;10373999;28;20029;-70
2022/06/28 04:53:50;;;;;;;12.95;3.72;;;;;;;15.77;100.00;102127.81;10389067;28;20048;-70
2022/06/28 04:58:51;;;;;;;12.50;5.45;;;;;;;16.26;100.00;102129.47;10373737;28;20136;-70
2022/06/28 05:03:51;;;;;;;13.90;4.05;;;;;;;16.79;100.00;102146.06;10373759;28;20025;-73
2022/06/28 05:08:52;;;;;;;11.77;5.47;;;;;;;17.12;100.00;102137.00;10373167;28;20084;-72
2022/06/28 05:13:52;;;;;;;11.25;4.82;;;;;;;17.36;100.00;102135.53;10374794;28;20359;-70
2022/06/28 05:18:52;;;;;;;9.00;4.68;;;;;;;17.47;100.00;102136.78;10381590;28;20048;-70
2022/06/28 05:23:53;;;;;;;13.05;5.22;;;;;;;17.58;100.00;102133.38;10381723;28;20202;-70
2022/06/28 05:28:53;;;;;;;11.70;5.13;;;;;;;18.06;100.00;102127.53;10382471;28;20045;-83
2022/06/28 05:33:55;;;;;;;7.60;4.13;;;;;;;18.59;100.00;102141.00;10397188;28;20050;-84
2022/06/28 05:38:56;;;;;;;3.38;3.05;;;;;;;18.82;100.00;102134.94;10397079;28;20493;-84
2022/06/28 05:43:56;;;;;;;12.80;4.38;;;;;;;19.26;100.00;102127.63;10398895;28;20030;-83
2022/06/28 05:48:57;;;;;;;12.10;3.50;;;;;;;19.64;100.00;102137.63;10385271;28;20037;-84
2022/06/28 05:53:57;;;;;;;11.25;4.55;;;;;;;19.54;100.00;102121.66;10382038;28;20046;-82
2022/06/28 05:58:58;;;;;;;12.27;4.10;;;;;;;20.25;100.00;102119.34;10379910;28;20057;-84
2022/06/28 06:03:58;;;;;;;11.20;3.92;;;;;;;20.53;98.45;102119.59;10380462;28;20065;-83
2022/06/28 06:08:59;;;;;;;5.65;3.65;;;;;;;20.53;100.00;102118.75;10379340;28;20030;-84
2022/06/28 06:14:00;;;;;;;13.98;4.03;;;;;;;20.87;99.01;102119.94;10409346;28;20453;-83
2022/06/28 06:19:00;;;;;;;6.97;3.35;;;;;;;21.28;96.98;102120.91;10381235;28;20068;-83
2022/06/28 06:24:00;;;;;;;11.85;4.53;;;;;;;21.47;96.15;102128.00;10380035;28;20045;-83
2022/06/28 06:29:01;;;;;;;9.93;4.63;;;;;;;21.64;93.14;102128.13;10377559;28;20034;-82
2022/06/28 06:34:01;;;;;;;15.63;3.83;;;;;;;22.09;92.33;102124.66;10379348;28;20034;-83
2022/06/28 06:39:02;;;;;;;7.00;3.45;;;;;;;22.17;91.25;102128.97;10379420;28;20033;-83
2022/06/28 06:44:02;;;;;;;13.18;3.97;;;;;;;22.66;93.46;102121.94;10394618;28;20584;-83
2022/06/28 06:49:02;;;;;;;12.75;4.43;;;;;;;22.71;86.44;102132.22;10362040;28;20076;-83
2022/06/28 06:54:03;;;;;;;14.88;5.05;;;;;;;23.29;89.87;102124.63;10377424;28;20516;-83
2022/06/28 06:59:03;;;;;;;8.45;3.67;;;;;;;23.71;90.05;102127.78;10392848;28;20498;-83
2022/06/28 07:04:04;;;;;;;10.77;3.47;;;;;;;22.86;85.44;102131.66;10376907;28;20049;-83
2022/06/28 07:09:04;;;;;;;9.77;2.88;;;;;;;22.79;83.57;102122.69;10378073;28;20478;-83
2022/06/28 07:14:05;;;;;;;8.18;3.38;;;;;;;23.93;73.26;102107.56;10378296;28;20084;-83
2022/06/28 07:19:05;;;;;;;3.75;3.15;;;;;;;23.87;74.50;102128.81;10377576;28;20037;-83
2022/06/28 07:24:07;;;;;;;17.75;4.60;;;;;;;23.72;75.71;102139.66;10377204;28;20041;-83
2022/06/28 07:29:08;;;;;;;13.65;4.60;;;;;;;24.07;62.50;102131.00;10377075;28;20443;-83
2022/06/28 07:34:08;;;;;;;12.88;4.00;;;;;;;24.12;70.81;102133.81;10377014;28;20045;-83
2022/06/28 07:39:09;;;;;;;6.75;3.38;;;;;;;25.48;69.77;102134.56;10375900;28;20474;-83
2022/06/28 07:44:09;;;;;;;21.55;4.03;;;;;;;26.34;65.19;102130.50;10386526;28;20316;-84
2022/06/28 07:49:10;;;;;;;4.85;2.90;;;;;;;25.89;60.27;102134.81;10376639;28;20416;-83
2022/06/28 07:54:10;;;;;;;10.82;3.50;;;;;;;25.22;59.83;102133.53;10376123;28;20076;-83
2022/06/28 07:59:11;;;;;;;11.85;3.20;;;;;;;25.33;58.41;102131.66;10374186;28;20147;-83
2022/06/28 08:04:11;;;;;;;6.72;3.72;;;;;;;26.00;52.80;102127.34;10374525;28;20033;-83
2022/06/28 08:09:12;;;;;;;6.38;2.33;;;;;;;25.56;59.28;102127.66;10375841;28;20034;-83
2022/06/28 08:14:12;;;;;;;5.38;2.20;;;;;;;26.04;55.09;102125.69;10384636;28;20436;-83
2022/06/28 08:19:15;;;;;;;5.05;2.17;;;;;;;26.23;54.00;102112.16;10377135;28;20492;-82
2022/06/28 08:24:15;;;;;;;11.30;3.30;;;;;;;25.74;48.52;102118.88;10375067;28;20052;-83
2022/06/28 08:29:16;;;;;;;4.35;2.70;;;;;;;25.83;54.73;102124.78;10389313;28;20462;-83
2022/06/28 08:34:17;;;;;;;13.45;2.72;;;;;;;26.87;53.81;102115.34;10373462;28;20026;-82
2022/06/28 08:39:17;;;;;;;9.60;2.55;;;;;;;26.70;55.76;102111.16;10373423;28;20485;-83
2022/06/28 08:44:18;;;;;;;9.98;3.13;;;;;;;27.68;59.58;102105.19;10380453;28;20037;-83
2022/06/28 08:49:48;;;;;;;4.93;2.92;;;;;;;28.19;56.57;102104.16;10379517;28;20030;-82
2022/06/28 08:54:50;;;;;;;3.42;2.22;;;;;;;27.36;44.57;102094.44;10385630;28;20042;-82
2022/06/28 08:59:50;;;;;;;7.82;2.95;;;;;;;24.85;54.94;102094.69;10371739;28;20049;-83
2022/06/28 09:04:53;;;;;;;6.25;3.25;;;;;;;25.10;54.73;102097.66;10373434;28;20050;-82
2022/06/28 09:09:54;;;;;;;3.28;1.60;;;;;;;25.24;48.83;102096.16;10372583;28;20103;-83
2022/06/28 09:14:55;;;;;;;7.20;2.58;;;;;;;25.52;48.70;102094.91;10372598;28;20037;-83
2022/06/28 09:19:58;;;;;;;13.07;3.80;;;;;;;26.47;44.77;102093.88;10373334;28;20030;-83
2022/06/28 09:24:59;;;;;;;8.18;2.50;;;;;;;27.26;51.90;102100.03;10371977;28;20068;-83
2022/06/28 09:30:00;;;;;;;4.45;2.88;;;;;;;27.20;44.60;102087.25;10373281;28;20034;-83
2022/06/28 09:35:03;;;;;;;6.63;2.47;;;;;;;27.04;47.26;102078.06;10388251;28;20041;-82
2022/06/28 09:40:17;;;;;;;7.78;1.95;;;;;;;27.99;47.91;102082.84;10373298;28;20035;-83
2022/06/28 09:45:17;;;;;;;8.68;2.45;;;;;;;27.92;40.37;102076.72;10379681;28;20064;-83
2022/06/28 09:50:19;;;;;;;6.38;2.65;;;;;;;27.99;39.03;102074.47;10383870;28;20026;-83
2022/06/28 09:55:19;;;;;;;3.47;2.35;;;;;;;28.47;45.99;102066.41;10373370;28;20433;-84
2022/06/28 10:00:24;;;;;;;5.72;1.35;;;;;;;28.44;44.36;102067.81;10371694;28;20085;-84
2022/06/28 10:05:25;;;;;;;6.50;1.63;;;;;;;28.28;41.38;102069.84;10381615;28;20108;-83
2022/06/28 10:10:25;;;;;;;6.85;2.22;;;;;;;28.39;41.12;102059.44;10363197;28;20034;-84
2022/06/28 10:15:27;;;;;;;7.53;2.85;;;;;;;28.44;42.68;102062.22;10380087;28;20153;-84
2022/06/28 10:20:29;;;;;;;1.85;1.50;;;;;;;28.75;40.42;102050.84;10408607;28;20050;-84
2022/06/28 10:25:30;;;;;;;4.28;2.25;;;;;;;27.95;40.29;102051.94;10395256;28;20049;-84
2022/06/28 10:30:31;;;;;;;2.45;1.58;;;;;;;28.50;32.77;102047.13;10361371;28;20057;-84
2022/06/28 10:35:31;;;;;;;7.55;2.08;;;;;;;28.32;37.69;102042.22;10378839;28;20540;-85
2022/06/28 10:40:31;;;;;;;5.90;2.35;;;;;;;28.58;35.26;102026.16;10378937;28;20049;-84
2022/06/28 10:46:00;;;;;;;2.63;1.70;;;;;;;29.31;39.25;102029.91;10378907;28;20049;-84
2022/06/28 10:51:02;;;;;;;3.90;1.65;;;;;;;29.23;39.63;102028.63;10401966;28;20037;-85
2022/06/28 10:56:14;;;;;;;3.60;1.65;;;;;;;28.77;32.73;102014.28;10379323;28;20038;-84
2022/06/28 11:01:14;;;;;;;3.47;1.90;;;;;;;29.08;32.39;102026.84;10377941;28;20132;-85
2022/06/28 11:06:15;;;;;;;4.13;1.83;;;;;;;28.46;31.83;102015.41;10376879;28;20049;-85
2022/06/28 11:11:15;;;;;;;3.75;1.45;;;;;;;28.43;34.86;102018.78;10376970;28;20259;-84
2022/06/28 11:16:45;;;;;;;1.45;1.35;;;;;;;28.93;37.84;102008.25;10361706;28;20056;-85
2022/06/28 11:21:46;;;;;;;1.50;1.40;;;;;;;29.13;34.87;101996.09;10377188;28;20462;-85
2022/06/28 11:32:15;;;;;;;4.07;2.15;;;;;;;29.94;36.73;102003.72;10377684;28;20537;-85
2022/06/28 11:37:15;;;;;;;1.80;1.50;;;;;;;29.87;32.79;101990.13;10359740;28;20037;-85
2022/06/28 11:42:16;;;;;;;2.22;1.30;;;;;;;29.94;30.40;101987.78;10376070;28;20042;-83
2022/06/28 11:47:16;;;;;;;0.93;0.93;;;;;;;29.63;35.65;101984.59;10376967;28;20046;-84
2022/06/28 11:52:17;;;;;;;5.05;1.65;;;;;;;30.02;35.74;101983.47;10388637;28;20045;-84
2022/06/28 11:57:17;;;;;;;1.40;1.30;;;;;;;29.32;31.20;101970.19;10392719;28;20485;-83
2022/06/28 12:02:38;;;;;;;3.83;1.10;;;;;;;29.25;35.17;101978.94;10375323;28;20066;-83
2022/06/28 12:07:41;;;;;;;3.90;1.85;;;;;;;28.87;35.29;101964.81;10380677;28;20100;-85
2022/06/28 12:12:42;;;;;;;1.90;1.80;;;;;;;28.56;33.79;101969.91;10377197;28;20076;-84
2022/06/28 12:17:47;;;;;;;4.10;1.38;;;;;;;28.98;34.28;101971.97;10374598;28;20069;-82
2022/06/28 12:22:55;;;;;;;9.13;2.45;;;;;;;29.61;35.68;101957.00;10387464;28;20042;-83
2022/06/28 12:27:56;;;;;;;3.00;1.67;;;;;;;30.12;35.28;101973.00;10377354;28;20037;-84
2022/06/28 12:32:57;;;;;;;8.73;2.20;;;;;;;29.94;31.23;101968.25;10376575;28;20042;-83
2022/06/28 12:37:57;;;;;;;3.03;1.80;;;;;;;28.90;33.77;101958.66;10375279;28;20033;-83
2022/06/28 12:42:57;;;;;;;1.42;1.33;;;;;;;29.59;35.44;101948.06;10389548;28;20041;-83
2022/06/28 12:47:58;;;;;;;2.53;1.50;;;;;;;29.24;33.68;101952.16;10374318;28;20113;-83
2022/06/28 12:52:58;;;;;;;1.98;1.52;;;;;;;29.37;35.95;101954.22;10387228;28;20053;-82
2022/06/28 12:57:58;;;;;;;1.50;1.45;;;;;;;29.50;32.02;101937.88;10376904;28;20135;-82
2022/06/28 13:02:59;;;;;;;3.67;1.90;;;;;;;29.26;35.99;101940.69;10373878;28;20037;-83
2022/06/28 13:08:01;;;;;;;5.25;1.38;;;;;;;28.51;35.11;101928.97;10373299;28;20034;-82
2022/06/28 13:13:01;;;;;;;2.22;1.55;;;;;;;28.51;33.29;101930.94;10373999;28;20034;-83
2022/06/28 13:18:02;;;;;;;10.02;2.28;;;;;;;27.40;37.07;101934.19;10373186;28;20088;-82
2022/06/28 13:23:03;;;;;;;1.35;1.25;;;;;;;27.94;34.11;101927.75;10372536;28;20064;-81
2022/06/28 13:28:03;;;;;;;8.38;1.95;;;;;;;28.37;37.75;101930.75;10372934;28;20401;-82
2022/06/28 13:33:04;;;;;;;2.53;1.63;;;;;;;28.82;36.55;101917.50;10373278;28;20116;-82
2022/06/28 13:38:04;;;;;;;3.80;2.42;;;;;;;29.01;36.55;101912.00;10378585;28;20088;-82
2022/06/28 13:48:24;;;;;;;6.15;2.38;;;;;;;29.58;35.36;101900.91;10381172;28;20049;-82
2022/06/28 13:53:24;;;;;;;1.90;1.55;;;;;;;29.57;37.71;101899.25;10395723;28;20042;-81
2022/06/28 13:58:25;;;;;;;1.48;1.38;;;;;;;29.47;36.12;101896.63;10384565;28;20058;-81
2022/06/28 14:03:26;;;;;;;5.40;1.92;;;;;;;29.34;36.57;101890.66;10380787;28;20034;-82
2022/06/28 14:08:26;;;;;;;2.38;1.63;;;;;;;29.37;38.00;101878.88;10380730;28;20481;-81
2022/06/28 14:13:27;;;;;;;7.63;2.80;;;;;;;29.90;37.56;101875.03;10379090;28;20104;-82
2022/06/28 14:18:27;;;;;;;2.95;2.15;;;;;;;29.54;37.73;101874.72;10362007;28;20061;-81
2022/06/28 14:23:28;;;;;;;2.03;1.73;;;;;;;29.56;35.08;101875.28;10384592;28;20041;-82
2022/06/28 14:28:29;;;;;;;2.58;1.80;;;;;;;27.78;38.53;101867.75;10386212;28;20267;-80
2022/06/28 14:33:29;;;;;;;1.95;1.80;;;;;;;26.56;37.72;101878.34;10379075;28;20478;-80
2022/06/28 14:38:29;;;;;;;2.63;1.83;;;;;;;25.94;39.73;101873.91;10378918;28;20042;-80
2022/06/28 14:43:30;;;;;;;5.77;2.03;;;;;;;25.77;41.19;101867.78;10378962;28;20037;-79
2022/06/28 14:48:30;;;;;;;1.40;1.30;;;;;;;25.25;40.99;101866.88;10378060;28;20837;-80
2022/06/28 14:53:32;;;;;;;2.60;1.83;;;;;;;25.15;40.42;101867.69;10361734;28;20041;-79
2022/06/28 14:58:33;;;;;;;2.00;1.83;;;;;;;24.99;41.24;101860.38;10388866;28;20066;-79
2022/06/28 15:03:33;;;;;;;2.25;1.77;;;;;;;25.29;42.28;101843.84;10393340;28;20421;-80
2022/06/28 15:08:33;;;;;;;4.95;1.25;;;;;;;25.21;41.49;101841.63;10378658;28;20394;-79
2022/06/28 15:13:34;;;;;;;2.33;1.45;;;;;;;25.13;42.34;101842.16;10377826;28;20034;-80
2022/06/28 15:18:34;;;;;;;2.55;2.35;;;;;;;25.60;42.24;101826.44;10392347;28;20481;-79
2022/06/28 15:34:13;;;;;;;2.15;1.95;;;;;;;25.51;41.66;101798.44;10389597;28;20448;-79
2022/06/28 15:39:14;;;;;;;1.55;1.45;;;;;;;26.18;42.51;101791.75;10376519;28;20069;-79
2022/06/28 15:44:14;;;;;;;1.60;1.50;;;;;;;26.33;41.87;101784.50;10376306;28;20045;-79
2022/06/28 15:49:14;;;;;;;3.38;2.00;;;;;;;26.19;42.64;101776.75;10375188;28;20428;-80
2022/06/28 15:54:15;;;;;;;5.85;2.80;;;;;;;25.86;41.20;101769.03;10376663;28;20045;-79
2022/06/28 15:59:15;;;;;;;3.22;1.55;;;;;;;25.56;42.61;101765.16;10381416;28;20080;-79
2022/06/28 16:04:16;;;;;;;15.60;1.92;;;;;;;25.60;42.07;101754.34;10379880;28;20058;-79
2022/06/28 16:09:16;;;;;;;3.22;2.28;;;;;;;25.23;40.98;101750.69;10376241;28;20038;-78
2022/06/28 16:14:16;;;;;;;3.75;1.48;;;;;;;25.06;41.97;101739.00;10377796;28;20048;-79
2022/06/28 16:19:17;;;;;;;2.28;2.15;;;;;;;25.15;42.02;101733.81;10376150;28;20037;-78
2022/06/28 16:24:17;;;;;;;4.53;2.30;;;;;;;24.94;42.30;101727.34;10375130;28;20053;-79
2022/06/28 16:29:18;;;;;;;1.27;1.27;;;;;;;24.63;43.35;101729.19;10401587;28;20037;-78
2022/06/28 16:34:18;;;;;;;3.97;2.17;;;;;;;24.38;43.40;101708.59;10374777;28;20474;-78
2022/06/28 16:39:18;;;;;;;9.38;2.28;;;;;;;24.14;43.62;101722.88;10389945;28;20425;-78
2022/06/28 16:44:19;;;;;;;3.13;2.05;;;;;;;23.75;43.85;101705.75;10389584;28;20045;-78
2022/06/28 16:49:20;;;;;;;2.50;1.98;;;;;;;23.77;44.29;101714.63;10374234;28;20030;-78
2022/06/28 16:54:20;;;;;;;3.90;1.65;;;;;;;23.64;42.96;101704.84;10374757;28;20141;-78
2022/06/28 16:59:20;;;;;;;5.32;1.52;;;;;;;23.44;43.54;101712.97;10387215;28;20088;-78
2022/06/28 17:04:21;;;;;;;1.85;1.60;;;;;;;23.26;44.22;101702.28;10374949;28;20065;-78
2022/06/28 17:09:21;;;;;;;4.10;1.60;;;;;;;23.30;44.37;101700.69;10374630;28;20486;-78
2022/06/28 17:14:22;;;;;;;2.22;1.63;;;;;;;23.36;44.57;101706.00;10388937;28;20096;-78
2022/06/28 17:19:22;;;;;;;1.10;1.10;;;;;;;23.44;44.99;101708.25;10373811;28;20034;-78
2022/06/28 17:24:22;;;;;;;3.47;1.55;;;;;;;23.40;45.15;101701.59;10388708;28;20065;-77
2022/06/28 17:29:23;;;;;;;0.80;0.80;;;;;;;23.33;46.16;101697.41;10371906;28;20041;-78
2022/06/28 17:34:23;;;;;;;3.28;2.08;;;;;;;23.18;46.37;101682.34;10389188;28;20109;-78
2022/06/28 17:39:24;;;;;;;1.73;1.63;;;;;;;23.31;46.29;101685.78;10355867;28;20505;-78
2022/06/28 17:44:25;;;;;;;1.65;1.55;;;;;;;23.35;46.53;101695.19;10388236;28;20052;-78
2022/06/28 17:49:25;;;;;;;2.22;2.03;;;;;;;23.34;46.23;101696.31;10373465;28;20038;-78
2022/06/28 17:54:26;;;;;;;2.17;1.98;;;;;;;23.05;47.78;101684.72;10373330;28;20125;-78
2022/06/28 17:59:26;;;;;;;2.08;1.75;;;;;;;22.93;48.00;101677.41;10384214;28;20076;-77
2022/06/28 18:04:26;;;;;;;5.50;1.58;;;;;;;22.93;48.62;101682.94;10372553;28;20392;-78
2022/06/28 18:09:28;;;;;;;6.78;1.50;;;;;;;22.84;49.37;101676.19;10372936;28;20038;-78
2022/06/28 18:14:28;;;;;;;1.23;1.17;;;;;;;22.77;49.77;101675.56;10371371;28;20036;-77
2022/06/28 18:19:28;;;;;;;1.48;1.40;;;;;;;22.56;51.60;101671.78;10371414;28;20038;-78
2022/06/28 18:24:29;;;;;;;1.55;1.40;;;;;;;22.36;53.12;101677.03;10392602;28;20042;-77
2022/06/28 18:29:29;;;;;;;3.13;1.83;;;;;;;22.23;53.70;101665.28;10387628;28;20477;-77
2022/06/28 18:34:30;;;;;;;3.55;1.80;;;;;;;22.06;54.41;101667.25;10379311;28;20034;-76
2022/06/28 18:39:30;;;;;;;4.28;1.85;;;;;;;21.93;55.04;101670.41;10379146;28;20077;-72
2022/06/28 18:44:32;;;;;;;3.50;1.70;;;;;;;21.83;54.85;101669.16;10377086;28;20124;-67
2022/06/28 18:49:33;;;;;;;1.17;1.15;;;;;;;21.79;55.22;101664.41;10378755;28;20443;-67
2022/06/28 18:54:33;;;;;;;4.55;1.90;;;;;;;21.75;55.10;101666.81;10378373;28;20033;-67
2022/06/28 18:59:34;;;;;;;2.70;1.70;;;;;;;21.72;55.22;101661.00;10378654;28;20053;-67
2022/06/28 19:04:35;;;;;;;5.53;1.88;;;;;;;21.65;55.53;101661.16;10377855;28;20100;-67
2022/06/28 19:09:36;;;;;;;1.42;1.25;;;;;;;21.54;56.33;101667.63;10377671;28;20030;-68
2022/06/28 19:14:36;;;;;;;2.92;1.83;;;;;;;21.49;56.78;101660.09;10377761;28;20038;-70
2022/06/28 19:19:37;;;;;;;3.40;2.03;;;;;;;21.48;56.19;101652.94;10377224;28;20033;-70
2022/06/28 19:24:38;;;;;;;4.47;1.52;;;;;;;21.35;58.02;101656.03;10376021;28;20034;-72
2022/06/28 19:29:38;;;;;;;3.50;1.80;;;;;;;21.26;58.74;101654.75;10375502;28;20065;-76
2022/06/28 19:34:40;;;;;;;2.53;1.55;;;;;;;21.07;59.93;101667.94;10376769;28;20100;-70
2022/06/28 19:39:40;;;;;;;3.40;1.83;;;;;;;21.04;59.39;101658.25;10376812;28;20113;-71
2022/06/28 19:44:40;;;;;;;3.20;1.77;;;;;;;20.88;61.12;101664.56;10364254;28;20466;-72
2022/06/28 19:49:41;;;;;;;3.25;1.67;;;;;;;20.82;60.54;101673.81;10336013;28;20038;-79
2022/06/28 19:54:41;;;;;;;4.85;1.92;;;;;;;20.71;61.61;101672.81;10336020;28;20061;-79
2022/06/28 19:59:43;;;;;;;6.55;1.88;;;;;;;20.62;60.94;101671.53;10343424;28;20462;-78
2022/06/28 20:04:44;;;;;;;3.45;1.75;;;;;;;20.52;62.47;101676.84;10325176;28;20041;-80
2022/06/28 20:09:45;;;;;;;1.88;1.60;;;;;;;20.41;62.40;101676.56;10355019;28;20046;-81
2022/06/28 20:14:45;;;;;;;4.28;2.13;;;;;;;20.30;62.91;101671.97;10351679;28;20094;-80
2022/06/28 20:19:46;;;;;;;1.85;1.75;;;;;;;20.27;63.29;101682.63;10338250;28;20534;-79
2022/06/28 20:24:46;;;;;;;1.65;1.38;;;;;;;20.19;63.36;101679.13;10349578;28;20058;-79
2022/06/28 20:29:47;;;;;;;2.47;1.20;;;;;;;20.10;64.57;101674.25;10345848;28;20437;-79
2022/06/28 20:34:47;;;;;;;3.60;2.22;;;;;;;20.04;64.97;101670.59;10336698;28;20490;-78
2022/06/28 20:39:47;;;;;;;1.63;1.38;;;;;;;20.00;65.39;101672.13;10333653;28;20124;-73
2022/06/28 20:44:49;;;;;;;3.30;1.85;;;;;;;19.93;65.42;101668.69;10332934;28;20084;-72
2022/06/28 20:49:49;;;;;;;2.20;1.73;;;;;;;19.90;65.89;101669.16;10332059;28;20038;-73
2022/06/28 20:54:49;;;;;;;3.35;1.88;;;;;;;19.79;66.31;101681.03;10353635;28;20552;-73
2022/06/28 20:59:50;;;;;;;1.58;1.48;;;;;;;19.68;65.87;101668.94;10374609;28;20050;-73
2022/06/28 21:04:50;;;;;;;3.90;2.33;;;;;;;19.55;68.24;101664.47;10389419;28;20050;-73
2022/06/28 21:09:52;;;;;;;4.82;1.88;;;;;;;19.51;67.80;101663.28;10374266;28;20092;-74
2022/06/28 21:14:52;;;;;;;3.38;1.75;;;;;;;19.49;70.28;101657.19;10373969;28;20034;-77
2022/06/28 21:19:52;;;;;;;5.85;1.60;;;;;;;19.56;67.97;101655.19;10373761;28;20120;-76
2022/06/28 21:24:53;;;;;;;2.92;2.17;;;;;;;19.42;70.91;101651.81;10372226;28;20116;-76
2022/06/28 21:29:53;;;;;;;1.50;1.40;;;;;;;19.32;71.57;101648.00;10372024;28;20080;-77
2022/06/28 21:34:54;;;;;;;2.72;2.22;;;;;;;19.22;71.33;101637.59;10373503;28;20378;-77
2022/06/28 21:39:54;;;;;;;2.78;2.58;;;;;;;19.13;71.15;101639.03;10372459;28;20076;-76
2022/06/28 21:44:55;;;;;;;5.25;4.45;;;;;;;19.08;69.37;101633.41;10373482;28;20029;-76
2022/06/28 21:49:55;;;;;;;7.53;4.70;;;;;;;18.96;72.74;101644.38;10373732;28;20041;-77
2022/06/28 21:54:56;;;;;;;6.38;4.25;;;;;;;18.97;73.96;101646.88;10388537;28;20034;-77
2022/06/28 21:59:56;;;;;;;6.63;3.35;;;;;;;18.98;72.13;101644.97;10384685;28;20177;-77
2022/06/28 22:04:56;;;;;;;3.67;3.42;;;;;;;18.92;69.54;101633.03;10380922;28;20397;-77
2022/06/28 22:09:57;;;;;;;9.02;4.22;;;;;;;18.76;71.24;101642.78;10379381;28;20095;-76
2022/06/28 22:14:57;;;;;;;5.40;3.60;;;;;;;18.59;72.44;101626.09;10380670;28;20038;-77
2022/06/28 22:19:57;;;;;;;9.85;4.63;;;;;;;18.48;72.71;101632.38;10378969;28;20030;-77
2022/06/28 22:24:58;;;;;;;9.32;4.18;;;;;;;18.39;72.76;101613.75;10395258;28;20462;-77
2022/06/28 22:29:58;;;;;;;7.68;3.88;;;;;;;18.28;72.56;101618.09;10388079;28;20041;-77
2022/06/28 22:34:59;;;;;;;4.50;3.90;;;;;;;18.20;72.02;101622.00;10380954;28;20033;-77
2022/06/28 22:40:04;;;;;;;4.00;3.25;;;;;;;18.09;72.59;101618.13;10379899;28;20431;-77
2022/06/28 22:45:05;;;;;;;3.70;3.40;;;;;;;18.03;71.72;101619.03;10380291;28;20041;-76
2022/06/28 22:50:06;;;;;;;2.45;2.30;;;;;;;17.90;74.67;101605.50;10379447;28;20061;-77
2022/06/28 22:55:07;;;;;;;5.35;3.60;;;;;;;17.82;78.61;101609.38;10378781;28;20503;-77
2022/06/28 23:00:07;;;;;;;8.68;3.08;;;;;;;17.73;81.55;101596.19;10384248;28;20053;-77
2022/06/28 23:05:08;;;;;;;4.32;2.75;;;;;;;17.65;81.75;101598.16;10378942;28;20034;-76
2022/06/28 23:15:28;;;;;;;4.20;2.28;;;;;;;17.61;80.71;101601.56;10378182;28;20433;-77
2022/06/28 23:20:29;;;;;;;4.32;2.95;;;;;;;17.56;80.95;101591.31;10377699;28;20029;-77
2022/06/28 23:25:29;;;;;;;3.78;2.22;;;;;;;17.55;78.88;101597.00;10392831;28;20523;-77
2022/06/28 23:30:30;;;;;;;4.95;2.72;;;;;;;17.44;79.79;101588.47;10375822;28;20034;-76